sensor_id;sensor_type;location;lat;lon;timestamp;P1;durP1;ratioP1;P2;durP2;ratioP2
55254;SDS011;41118;44.634;11.182;2023-06-10T00:01:42;5.50;;;2.10;;
55254;SDS011;41118;44.634;11.182;2023-06-10T00:04:12;6.68;;;2.92;;
55254;SDS011;41118;44.634;11.182;2023-06-10T00:06:38;10.02;;;2.40;;
55254;SDS011;41118;44.634;11.182;2023-06-10T00:09:04;4.57;;;2.38;;
55254;SDS011;41118;44.634;11.182;2023-06-10T00:11:32;6.25;;;1.88;;
55254;SDS011;41118;44.634;11.182;2023-06-10T00:13:59;9.13;;;2.03;;
55254;SDS011;41118;44.634;11.182;2023-06-10T00:16:25;5.85;;;1.95;;
55254;SDS011;41118;44.634;11.182;2023-06-10T00:18:52;6.80;;;2.35;;
55254;SDS011;41118;44.634;11.182;2023-06-10T00:21:18;8.68;;;2.22;;
55254;SDS011;41118;44.634;11.182;2023-06-10T00:23:44;4.85;;;1.65;;
55254;SDS011;41118;44.634;11.182;2023-06-10T00:26:10;10.82;;;2.38;;
55254;SDS011;41118;44.634;11.182;2023-06-10T00:28:37;11.57;;;2.13;;
55254;SDS011;41118;44.634;11.182;2023-06-10T00:31:03;7.15;;;2.90;;
55254;SDS011;41118;44.634;11.182;2023-06-10T00:33:30;7.45;;;1.45;;
55254;SDS011;41118;44.634;11.182;2023-06-10T00:35:56;8.18;;;1.48;;
55254;SDS011;41118;44.634;11.182;2023-06-10T00:38:22;3.95;;;1.10;;
55254;SDS011;41118;44.634;11.182;2023-06-10T00:40:48;7.00;;;1.73;;
55254;SDS011;41118;44.634;11.182;2023-06-10T00:43:14;3.58;;;1.08;;
55254;SDS011;41118;44.634;11.182;2023-06-10T00:45:40;6.95;;;0.95;;
55254;SDS011;41118;44.634;11.182;2023-06-10T00:48:06;4.78;;;1.25;;
55254;SDS011;41118;44.634;11.182;2023-06-10T00:50:33;7.05;;;1.88;;
55254;SDS011;41118;44.634;11.182;2023-06-10T00:52:59;9.43;;;1.42;;
55254;SDS011;41118;44.634;11.182;2023-06-10T00:55:25;3.60;;;1.63;;
55254;SDS011;41118;44.634;11.182;2023-06-10T00:57:52;6.72;;;1.95;;
55254;SDS011;41118;44.634;11.182;2023-06-10T01:00:18;20.33;;;3.00;;
55254;SDS011;41118;44.634;11.182;2023-06-10T01:02:45;7.45;;;2.85;;
55254;SDS011;41118;44.634;11.182;2023-06-10T01:05:11;8.38;;;2.03;;
55254;SDS011;41118;44.634;11.182;2023-06-10T01:07:50;4.78;;;2.00;;
55254;SDS011;41118;44.634;11.182;2023-06-10T01:10:29;12.88;;;3.80;;
55254;SDS011;41118;44.634;11.182;2023-06-10T01:12:59;7.03;;;2.15;;
55254;SDS011;41118;44.634;11.182;2023-06-10T01:15:28;5.85;;;1.98;;
55254;SDS011;41118;44.634;11.182;2023-06-10T01:17:59;9.20;;;2.85;;
55254;SDS011;41118;44.634;11.182;2023-06-10T01:20:27;7.00;;;2.22;;
55254;SDS011;41118;44.634;11.182;2023-06-10T01:22:56;7.43;;;2.50;;
55254;SDS011;41118;44.634;11.182;2023-06-10T01:25:23;6.75;;;2.03;;
55254;SDS011;41118;44.634;11.182;2023-06-10T01:28:13;13.77;;;5.15;;
55254;SDS011;41118;44.634;11.182;2023-06-10T01:33:29;8.25;;;2.78;;
55254;SDS011;41118;44.634;11.182;2023-06-10T01:35:57;12.40;;;4.10;;
55254;SDS011;41118;44.634;11.182;2023-06-10T01:38:25;12.88;;;5.93;;
55254;SDS011;41118;44.634;11.182;2023-06-10T01:40:51;9.40;;;4.85;;
55254;SDS011;41118;44.634;11.182;2023-06-10T01:43:17;9.02;;;2.83;;
55254;SDS011;41118;44.634;11.182;2023-06-10T01:45:43;10.88;;;4.85;;
55254;SDS011;41118;44.634;11.182;2023-06-10T01:48:09;13.23;;;4.82;;
55254;SDS011;41118;44.634;11.182;2023-06-10T01:50:35;8.50;;;4.93;;
55254;SDS011;41118;44.634;11.182;2023-06-10T01:53:03;11.15;;;3.58;;
55254;SDS011;41118;44.634;11.182;2023-06-10T01:55:30;9.32;;;4.18;;
55254;SDS011;41118;44.634;11.182;2023-06-10T01:57:56;8.75;;;4.63;;
55254;SDS011;41118;44.634;11.182;2023-06-10T02:00:23;10.02;;;4.60;;
55254;SDS011;41118;44.634;11.182;2023-06-10T02:02:49;9.35;;;4.90;;
55254;SDS011;41118;44.634;11.182;2023-06-10T02:05:15;10.07;;;4.22;;
55254;SDS011;41118;44.634;11.182;2023-06-10T02:07:41;7.82;;;2.60;;
55254;SDS011;41118;44.634;11.182;2023-06-10T02:10:07;7.85;;;3.08;;
55254;SDS011;41118;44.634;11.182;2023-06-10T02:12:34;7.15;;;3.17;;
55254;SDS011;41118;44.634;11.182;2023-06-10T02:15:00;10.90;;;2.72;;
55254;SDS011;41118;44.634;11.182;2023-06-10T02:17:26;5.15;;;1.63;;
55254;SDS011;41118;44.634;11.182;2023-06-10T02:19:53;6.07;;;1.25;;
55254;SDS011;41118;44.634;11.182;2023-06-10T02:22:22;5.00;;;1.63;;
55254;SDS011;41118;44.634;11.182;2023-06-10T02:24:49;5.18;;;1.52;;
55254;SDS011;41118;44.634;11.182;2023-06-10T02:27:15;10.35;;;2.70;;
55254;SDS011;41118;44.634;11.182;2023-06-10T02:29:41;4.55;;;1.80;;
55254;SDS011;41118;44.634;11.182;2023-06-10T02:32:08;5.05;;;1.40;;
55254;SDS011;41118;44.634;11.182;2023-06-10T02:34:34;5.35;;;2.85;;
55254;SDS011;41118;44.634;11.182;2023-06-10T02:37:01;6.72;;;3.20;;
55254;SDS011;41118;44.634;11.182;2023-06-10T02:39:28;8.75;;;4.32;;
55254;SDS011;41118;44.634;11.182;2023-06-10T02:41:54;10.10;;;5.35;;
55254;SDS011;41118;44.634;11.182;2023-06-10T02:44:20;6.05;;;2.83;;
55254;SDS011;41118;44.634;11.182;2023-06-10T02:46:46;8.38;;;3.53;;
55254;SDS011;41118;44.634;11.182;2023-06-10T02:49:12;9.57;;;3.97;;
55254;SDS011;41118;44.634;11.182;2023-06-10T02:51:39;12.32;;;6.60;;
55254;SDS011;41118;44.634;11.182;2023-06-10T02:54:05;11.60;;;4.78;;
55254;SDS011;41118;44.634;11.182;2023-06-10T02:56:31;9.20;;;3.78;;
55254;SDS011;41118;44.634;11.182;2023-06-10T02:58:58;14.65;;;4.65;;
55254;SDS011;41118;44.634;11.182;2023-06-10T03:01:24;9.05;;;3.67;;
55254;SDS011;41118;44.634;11.182;2023-06-10T03:03:50;9.38;;;3.92;;
55254;SDS011;41118;44.634;11.182;2023-06-10T03:06:17;11.77;;;5.05;;
55254;SDS011;41118;44.634;11.182;2023-06-10T03:08:43;13.23;;;5.07;;
55254;SDS011;41118;44.634;11.182;2023-06-10T03:11:10;10.05;;;4.47;;
55254;SDS011;41118;44.634;11.182;2023-06-10T03:13:38;11.77;;;5.15;;
55254;SDS011;41118;44.634;11.182;2023-06-10T03:16:05;12.75;;;5.65;;
55254;SDS011;41118;44.634;11.182;2023-06-10T03:18:32;12.88;;;4.30;;
55254;SDS011;41118;44.634;11.182;2023-06-10T03:20:59;12.45;;;4.43;;
55254;SDS011;41118;44.634;11.182;2023-06-10T03:23:25;9.00;;;5.50;;
55254;SDS011;41118;44.634;11.182;2023-06-10T03:25:52;13.05;;;4.88;;
55254;SDS011;41118;44.634;11.182;2023-06-10T03:28:19;13.85;;;4.55;;
55254;SDS011;41118;44.634;11.182;2023-06-10T03:30:46;9.82;;;4.30;;
55254;SDS011;41118;44.634;11.182;2023-06-10T03:33:12;6.82;;;3.75;;
55254;SDS011;41118;44.634;11.182;2023-06-10T03:35:39;9.48;;;4.35;;
55254;SDS011;41118;44.634;11.182;2023-06-10T03:38:05;7.95;;;4.18;;
55254;SDS011;41118;44.634;11.182;2023-06-10T03:40:31;11.38;;;3.85;;
55254;SDS011;41118;44.634;11.182;2023-06-10T03:42:57;7.57;;;3.63;;
55254;SDS011;41118;44.634;11.182;2023-06-10T03:45:23;8.20;;;3.63;;
55254;SDS011;41118;44.634;11.182;2023-06-10T03:47:49;8.55;;;3.30;;
55254;SDS011;41118;44.634;11.182;2023-06-10T03:50:15;7.32;;;3.15;;
55254;SDS011;41118;44.634;11.182;2023-06-10T03:52:41;9.88;;;3.95;;
55254;SDS011;41118;44.634;11.182;2023-06-10T03:55:09;7.15;;;2.58;;
55254;SDS011;41118;44.634;11.182;2023-06-10T03:57:36;8.63;;;2.72;;
55254;SDS011;41118;44.634;11.182;2023-06-10T04:00:03;7.53;;;2.92;;
55254;SDS011;41118;44.634;11.182;2023-06-10T04:02:35;7.77;;;3.20;;
55254;SDS011;41118;44.634;11.182;2023-06-10T04:05:01;10.07;;;4.13;;
55254;SDS011;41118;44.634;11.182;2023-06-10T04:07:28;8.05;;;3.25;;
55254;SDS011;41118;44.634;11.182;2023-06-10T04:09:56;9.05;;;3.63;;
55254;SDS011;41118;44.634;11.182;2023-06-10T04:12:22;12.85;;;5.00;;
55254;SDS011;41118;44.634;11.182;2023-06-10T04:14:48;11.95;;;4.38;;
55254;SDS011;41118;44.634;11.182;2023-06-10T04:17:16;9.35;;;3.28;;
55254;SDS011;41118;44.634;11.182;2023-06-10T04:19:42;7.30;;;3.58;;
55254;SDS011;41118;44.634;11.182;2023-06-10T04:22:08;9.60;;;4.25;;
55254;SDS011;41118;44.634;11.182;2023-06-10T04:24:34;8.95;;;3.85;;
55254;SDS011;41118;44.634;11.182;2023-06-10T04:27:00;10.90;;;4.70;;
55254;SDS011;41118;44.634;11.182;2023-06-10T04:29:27;11.18;;;4.97;;
55254;SDS011;41118;44.634;11.182;2023-06-10T04:31:53;10.63;;;4.15;;
55254;SDS011;41118;44.634;11.182;2023-06-10T04:34:19;10.55;;;4.15;;
55254;SDS011;41118;44.634;11.182;2023-06-10T04:36:45;14.57;;;5.05;;
55254;SDS011;41118;44.634;11.182;2023-06-10T04:39:11;8.15;;;3.65;;
55254;SDS011;41118;44.634;11.182;2023-06-10T04:41:38;10.00;;;5.00;;
55254;SDS011;41118;44.634;11.182;2023-06-10T04:44:04;10.52;;;5.13;;
55254;SDS011;41118;44.634;11.182;2023-06-10T04:46:29;8.98;;;4.43;;
55254;SDS011;41118;44.634;11.182;2023-06-10T04:48:56;12.55;;;4.30;;
55254;SDS011;41118;44.634;11.182;2023-06-10T04:51:23;8.38;;;4.75;;
55254;SDS011;41118;44.634;11.182;2023-06-10T04:53:49;11.02;;;5.88;;
55254;SDS011;41118;44.634;11.182;2023-06-10T04:56:15;11.80;;;4.32;;
55254;SDS011;41118;44.634;11.182;2023-06-10T04:58:41;10.65;;;3.88;;
55254;SDS011;41118;44.634;11.182;2023-06-10T05:01:07;11.15;;;6.45;;
55254;SDS011;41118;44.634;11.182;2023-06-10T05:03:33;11.73;;;5.15;;
55254;SDS011;41118;44.634;11.182;2023-06-10T05:05:59;12.30;;;4.47;;
55254;SDS011;41118;44.634;11.182;2023-06-10T05:08:25;15.35;;;5.30;;
55254;SDS011;41118;44.634;11.182;2023-06-10T05:10:51;9.40;;;4.55;;
55254;SDS011;41118;44.634;11.182;2023-06-10T05:13:17;10.25;;;4.38;;
55254;SDS011;41118;44.634;11.182;2023-06-10T05:15:44;7.80;;;3.85;;
55254;SDS011;41118;44.634;11.182;2023-06-10T05:18:11;7.80;;;3.38;;
55254;SDS011;41118;44.634;11.182;2023-06-10T05:20:37;12.88;;;4.68;;
55254;SDS011;41118;44.634;11.182;2023-06-10T05:23:04;8.77;;;3.22;;
55254;SDS011;41118;44.634;11.182;2023-06-10T05:25:30;10.60;;;4.03;;
55254;SDS011;41118;44.634;11.182;2023-06-10T05:27:57;9.43;;;4.78;;
55254;SDS011;41118;44.634;11.182;2023-06-10T05:30:23;9.98;;;4.68;;
55254;SDS011;41118;44.634;11.182;2023-06-10T05:32:51;12.60;;;4.35;;
55254;SDS011;41118;44.634;11.182;2023-06-10T05:35:17;7.45;;;3.67;;
55254;SDS011;41118;44.634;11.182;2023-06-10T05:37:44;9.77;;;5.07;;
55254;SDS011;41118;44.634;11.182;2023-06-10T05:40:10;10.95;;;4.15;;
55254;SDS011;41118;44.634;11.182;2023-06-10T05:42:36;12.15;;;4.47;;
55254;SDS011;41118;44.634;11.182;2023-06-10T05:45:02;12.98;;;4.57;;
55254;SDS011;41118;44.634;11.182;2023-06-10T05:47:29;11.60;;;5.65;;
55254;SDS011;41118;44.634;11.182;2023-06-10T05:49:55;9.65;;;3.90;;
55254;SDS011;41118;44.634;11.182;2023-06-10T05:52:21;6.80;;;2.65;;
55254;SDS011;41118;44.634;11.182;2023-06-10T05:54:48;8.40;;;3.25;;
55254;SDS011;41118;44.634;11.182;2023-06-10T05:57:14;8.25;;;3.47;;
55254;SDS011;41118;44.634;11.182;2023-06-10T05:59:40;11.55;;;4.63;;
55254;SDS011;41118;44.634;11.182;2023-06-10T06:02:06;13.50;;;6.07;;
55254;SDS011;41118;44.634;11.182;2023-06-10T06:04:32;7.13;;;3.28;;
55254;SDS011;41118;44.634;11.182;2023-06-10T06:06:58;8.32;;;3.58;;
55254;SDS011;41118;44.634;11.182;2023-06-10T06:09:24;11.45;;;2.70;;
55254;SDS011;41118;44.634;11.182;2023-06-10T06:11:51;9.68;;;3.45;;
55254;SDS011;41118;44.634;11.182;2023-06-10T06:14:17;9.30;;;4.57;;
55254;SDS011;41118;44.634;11.182;2023-06-10T06:16:43;6.70;;;3.05;;
55254;SDS011;41118;44.634;11.182;2023-06-10T06:19:09;7.05;;;3.30;;
55254;SDS011;41118;44.634;11.182;2023-06-10T06:21:36;6.97;;;3.47;;
55254;SDS011;41118;44.634;11.182;2023-06-10T06:24:02;8.68;;;1.55;;
55254;SDS011;41118;44.634;11.182;2023-06-10T06:26:28;9.30;;;3.10;;
55254;SDS011;41118;44.634;11.182;2023-06-10T06:28:55;8.07;;;2.92;;
55254;SDS011;41118;44.634;11.182;2023-06-10T06:31:20;4.90;;;2.17;;
55254;SDS011;41118;44.634;11.182;2023-06-10T06:33:47;7.65;;;2.28;;
55254;SDS011;41118;44.634;11.182;2023-06-10T06:36:13;5.25;;;1.42;;
55254;SDS011;41118;44.634;11.182;2023-06-10T06:38:39;6.72;;;1.88;;
55254;SDS011;41118;44.634;11.182;2023-06-10T06:41:06;6.47;;;2.40;;
55254;SDS011;41118;44.634;11.182;2023-06-10T06:43:32;7.18;;;1.58;;
55254;SDS011;41118;44.634;11.182;2023-06-10T06:45:58;3.13;;;1.17;;
55254;SDS011;41118;44.634;11.182;2023-06-10T06:48:24;3.10;;;1.50;;
55254;SDS011;41118;44.634;11.182;2023-06-10T06:50:50;7.32;;;2.72;;
55254;SDS011;41118;44.634;11.182;2023-06-10T06:53:17;6.97;;;1.95;;
55254;SDS011;41118;44.634;11.182;2023-06-10T06:55:43;7.53;;;1.35;;
55254;SDS011;41118;44.634;11.182;2023-06-10T06:58:09;5.75;;;2.42;;
55254;SDS011;41118;44.634;11.182;2023-06-10T07:00:35;5.68;;;1.70;;
55254;SDS011;41118;44.634;11.182;2023-06-10T07:03:01;7.70;;;3.63;;
55254;SDS011;41118;44.634;11.182;2023-06-10T07:05:27;6.85;;;1.88;;
55254;SDS011;41118;44.634;11.182;2023-06-10T07:07:55;4.57;;;2.28;;
55254;SDS011;41118;44.634;11.182;2023-06-10T07:10:24;4.90;;;2.67;;
55254;SDS011;41118;44.634;11.182;2023-06-10T07:12:51;2.97;;;1.05;;
55254;SDS011;41118;44.634;11.182;2023-06-10T07:15:17;10.50;;;2.70;;
55254;SDS011;41118;44.634;11.182;2023-06-10T07:17:43;6.07;;;1.95;;
55254;SDS011;41118;44.634;11.182;2023-06-10T07:20:09;3.55;;;1.58;;
55254;SDS011;41118;44.634;11.182;2023-06-10T07:22:35;3.65;;;1.58;;
55254;SDS011;41118;44.634;11.182;2023-06-10T07:25:01;5.50;;;1.35;;
55254;SDS011;41118;44.634;11.182;2023-06-10T07:27:28;4.97;;;1.40;;
55254;SDS011;41118;44.634;11.182;2023-06-10T07:29:54;3.35;;;1.50;;
55254;SDS011;41118;44.634;11.182;2023-06-10T07:32:20;2.63;;;1.08;;
55254;SDS011;41118;44.634;11.182;2023-06-10T07:34:47;8.93;;;1.40;;
55254;SDS011;41118;44.634;11.182;2023-06-10T07:37:13;4.75;;;1.48;;
55254;SDS011;41118;44.634;11.182;2023-06-10T07:39:39;7.55;;;1.60;;
55254;SDS011;41118;44.634;11.182;2023-06-10T07:42:05;4.57;;;1.88;;
55254;SDS011;41118;44.634;11.182;2023-06-10T07:44:32;4.53;;;1.15;;
55254;SDS011;41118;44.634;11.182;2023-06-10T07:46:58;8.50;;;1.20;;
55254;SDS011;41118;44.634;11.182;2023-06-10T07:49:24;3.72;;;0.90;;
55254;SDS011;41118;44.634;11.182;2023-06-10T07:51:50;5.13;;;1.45;;
55254;SDS011;41118;44.634;11.182;2023-06-10T07:54:16;4.38;;;1.60;;
55254;SDS011;41118;44.634;11.182;2023-06-10T07:56:42;4.72;;;1.88;;
55254;SDS011;41118;44.634;11.182;2023-06-10T07:59:09;6.25;;;0.70;;
55254;SDS011;41118;44.634;11.182;2023-06-10T08:01:35;5.30;;;1.35;;
55254;SDS011;41118;44.634;11.182;2023-06-10T08:04:03;7.55;;;1.33;;
55254;SDS011;41118;44.634;11.182;2023-06-10T08:06:29;3.30;;;1.35;;
55254;SDS011;41118;44.634;11.182;2023-06-10T08:08:55;5.30;;;1.63;;
55254;SDS011;41118;44.634;11.182;2023-06-10T08:11:21;5.25;;;1.75;;
55254;SDS011;41118;44.634;11.182;2023-06-10T08:13:47;7.38;;;1.17;;
55254;SDS011;41118;44.634;11.182;2023-06-10T08:16:13;11.57;;;1.80;;
55254;SDS011;41118;44.634;11.182;2023-06-10T08:18:39;4.90;;;2.00;;
55254;SDS011;41118;44.634;11.182;2023-06-10T08:21:05;8.05;;;2.00;;
55254;SDS011;41118;44.634;11.182;2023-06-10T08:23:31;5.03;;;1.67;;
55254;SDS011;41118;44.634;11.182;2023-06-10T08:25:58;7.07;;;2.30;;
55254;SDS011;41118;44.634;11.182;2023-06-10T08:28:24;3.75;;;1.83;;
55254;SDS011;41118;44.634;11.182;2023-06-10T08:30:50;5.78;;;1.98;;
55254;SDS011;41118;44.634;11.182;2023-06-10T08:33:17;4.20;;;1.27;;
55254;SDS011;41118;44.634;11.182;2023-06-10T08:35:43;5.60;;;1.10;;
55254;SDS011;41118;44.634;11.182;2023-06-10T08:38:09;5.20;;;0.93;;
55254;SDS011;41118;44.634;11.182;2023-06-10T08:40:35;4.72;;;0.63;;
55254;SDS011;41118;44.634;11.182;2023-06-10T08:43:06;2.40;;;1.15;;
55254;SDS011;41118;44.634;11.182;2023-06-10T08:45:34;2.97;;;1.02;;
55254;SDS011;41118;44.634;11.182;2023-06-10T08:48:00;3.63;;;0.77;;
55254;SDS011;41118;44.634;11.182;2023-06-10T08:50:31;3.53;;;1.45;;
55254;SDS011;41118;44.634;11.182;2023-06-10T08:52:58;3.30;;;1.15;;
55254;SDS011;41118;44.634;11.182;2023-06-10T08:55:35;5.13;;;1.33;;
55254;SDS011;41118;44.634;11.182;2023-06-10T08:58:03;2.33;;;1.13;;
55254;SDS011;41118;44.634;11.182;2023-06-10T09:00:29;1.83;;;0.50;;
55254;SDS011;41118;44.634;11.182;2023-06-10T09:02:56;3.75;;;0.50;;
55254;SDS011;41118;44.634;11.182;2023-06-10T09:05:23;5.35;;;0.82;;
55254;SDS011;41118;44.634;11.182;2023-06-10T09:07:49;2.88;;;0.77;;
55254;SDS011;41118;44.634;11.182;2023-06-10T09:10:17;3.70;;;1.15;;
55254;SDS011;41118;44.634;11.182;2023-06-10T09:12:43;1.80;;;0.50;;
55254;SDS011;41118;44.634;11.182;2023-06-10T09:15:09;3.55;;;0.40;;
55254;SDS011;41118;44.634;11.182;2023-06-10T09:17:37;1.35;;;0.40;;
55254;SDS011;41118;44.634;11.182;2023-06-10T09:20:05;2.20;;;0.50;;
55254;SDS011;41118;44.634;11.182;2023-06-10T09:22:31;2.47;;;0.40;;
55254;SDS011;41118;44.634;11.182;2023-06-10T09:25:11;0.93;;;0.30;;
55254;SDS011;41118;44.634;11.182;2023-06-10T09:27:50;1.15;;;0.30;;
55254;SDS011;41118;44.634;11.182;2023-06-10T09:30:28;1.30;;;0.20;;
55254;SDS011;41118;44.634;11.182;2023-06-10T09:32:55;2.97;;;0.30;;
55254;SDS011;41118;44.634;11.182;2023-06-10T09:35:22;1.17;;;0.30;;
55254;SDS011;41118;44.634;11.182;2023-06-10T09:37:51;1.30;;;0.30;;
55254;SDS011;41118;44.634;11.182;2023-06-10T09:40:17;5.93;;;0.30;;
55254;SDS011;41118;44.634;11.182;2023-06-10T09:42:43;2.75;;;0.30;;
55254;SDS011;41118;44.634;11.182;2023-06-10T09:45:09;0.88;;;0.20;;
55254;SDS011;41118;44.634;11.182;2023-06-10T09:47:35;1.38;;;0.40;;
55254;SDS011;41118;44.634;11.182;2023-06-10T09:50:01;2.20;;;0.35;;
55254;SDS011;41118;44.634;11.182;2023-06-10T09:52:28;2.00;;;0.20;;
55254;SDS011;41118;44.634;11.182;2023-06-10T09:55:00;1.13;;;0.20;;
55254;SDS011;41118;44.634;11.182;2023-06-10T09:57:30;0.70;;;0.20;;
55254;SDS011;41118;44.634;11.182;2023-06-10T09:59:57;1.88;;;0.20;;
55254;SDS011;41118;44.634;11.182;2023-06-10T10:02:23;3.38;;;0.10;;
55254;SDS011;41118;44.634;11.182;2023-06-10T10:04:49;2.58;;;0.30;;
55254;SDS011;41118;44.634;11.182;2023-06-10T10:07:16;1.23;;;0.20;;
55254;SDS011;41118;44.634;11.182;2023-06-10T10:09:42;0.75;;;0.20;;
55254;SDS011;41118;44.634;11.182;2023-06-10T10:12:12;3.13;;;0.10;;
55254;SDS011;41118;44.634;11.182;2023-06-10T10:14:38;0.88;;;0.20;;
55254;SDS011;41118;44.634;11.182;2023-06-10T10:17:07;1.00;;;0.15;;
55254;SDS011;41118;44.634;11.182;2023-06-10T10:19:36;0.82;;;0.13;;
55254;SDS011;41118;44.634;11.182;2023-06-10T10:22:04;0.60;;;0.20;;
55254;SDS011;41118;44.634;11.182;2023-06-10T10:24:35;0.75;;;0.20;;
55254;SDS011;41118;44.634;11.182;2023-06-10T10:27:04;3.00;;;0.13;;
55254;SDS011;41118;44.634;11.182;2023-06-10T10:29:38;0.65;;;0.20;;
55254;SDS011;41118;44.634;11.182;2023-06-10T10:32:06;2.72;;;0.10;;
55254;SDS011;41118;44.634;11.182;2023-06-10T10:34:36;1.98;;;0.20;;
55254;SDS011;41118;44.634;11.182;2023-06-10T10:37:06;0.80;;;0.20;;
55254;SDS011;41118;44.634;11.182;2023-06-10T10:39:33;0.63;;;0.20;;
55254;SDS011;41118;44.634;11.182;2023-06-10T10:41:59;0.80;;;0.17;;
55254;SDS011;41118;44.634;11.182;2023-06-10T10:44:28;1.25;;;0.30;;
55254;SDS011;41118;44.634;11.182;2023-06-10T10:46:54;1.83;;;0.20;;
55254;SDS011;41118;44.634;11.182;2023-06-10T10:49:21;3.47;;;0.60;;
55254;SDS011;41118;44.634;11.182;2023-06-10T10:51:55;2.63;;;0.20;;
55254;SDS011;41118;44.634;11.182;2023-06-10T10:54:27;1.25;;;0.20;;
55254;SDS011;41118;44.634;11.182;2023-06-10T11:02:18;3.20;;;0.15;;
55254;SDS011;41118;44.634;11.182;2023-06-10T11:04:45;3.05;;;0.20;;
55254;SDS011;41118;44.634;11.182;2023-06-10T11:07:12;0.85;;;0.20;;
55254;SDS011;41118;44.634;11.182;2023-06-10T11:10:02;0.40;;;0.10;;
55254;SDS011;41118;44.634;11.182;2023-06-10T11:13:00;2.58;;;0.20;;
55254;SDS011;41118;44.634;11.182;2023-06-10T11:15:23;0.93;;;0.10;;
55254;SDS011;41118;44.634;11.182;2023-06-10T11:28:38;1.58;;;0.20;;
55254;SDS011;41118;44.634;11.182;2023-06-10T11:31:05;0.93;;;0.17;;
55254;SDS011;41118;44.634;11.182;2023-06-10T11:33:31;1.38;;;0.20;;
55254;SDS011;41118;44.634;11.182;2023-06-10T11:35:57;1.00;;;0.20;;
55254;SDS011;41118;44.634;11.182;2023-06-10T11:38:24;1.33;;;0.10;;
55254;SDS011;41118;44.634;11.182;2023-06-10T11:40:51;1.05;;;0.10;;
55254;SDS011;41118;44.634;11.182;2023-06-10T11:43:17;2.63;;;0.35;;
55254;SDS011;41118;44.634;11.182;2023-06-10T11:45:44;1.10;;;0.10;;
55254;SDS011;41118;44.634;11.182;2023-06-10T11:48:10;0.77;;;0.20;;
55254;SDS011;41118;44.634;11.182;2023-06-10T11:50:37;0.90;;;0.20;;
55254;SDS011;41118;44.634;11.182;2023-06-10T11:53:04;0.70;;;0.13;;
55254;SDS011;41118;44.634;11.182;2023-06-10T11:55:42;1.73;;;0.20;;
55254;SDS011;41118;44.634;11.182;2023-06-10T11:58:27;0.50;;;0.15;;
55254;SDS011;41118;44.634;11.182;2023-06-10T12:00:54;4.22;;;0.20;;
55254;SDS011;41118;44.634;11.182;2023-06-10T12:03:24;1.00;;;0.10;;
55254;SDS011;41118;44.634;11.182;2023-06-10T12:06:02;5.38;;;0.20;;
55254;SDS011;41118;44.634;11.182;2023-06-10T12:08:29;1.10;;;0.20;;
55254;SDS011;41118;44.634;11.182;2023-06-10T12:10:55;6.88;;;0.20;;
55254;SDS011;41118;44.634;11.182;2023-06-10T12:13:22;2.63;;;0.30;;
55254;SDS011;41118;44.634;11.182;2023-06-10T12:15:51;3.00;;;0.30;;
55254;SDS011;41118;44.634;11.182;2023-06-10T12:20:44;0.85;;;0.20;;
55254;SDS011;41118;44.634;11.182;2023-06-10T12:23:11;1.60;;;0.30;;
55254;SDS011;41118;44.634;11.182;2023-06-10T12:25:37;2.05;;;0.20;;
55254;SDS011;41118;44.634;11.182;2023-06-10T12:28:04;3.20;;;1.20;;
55254;SDS011;41118;44.634;11.182;2023-06-10T12:30:31;2.70;;;0.20;;
55254;SDS011;41118;44.634;11.182;2023-06-10T12:32:57;2.97;;;0.22;;
55254;SDS011;41118;44.634;11.182;2023-06-10T12:35:25;5.97;;;0.30;;
55254;SDS011;41118;44.634;11.182;2023-06-10T12:37:58;1.92;;;0.30;;
55254;SDS011;41118;44.634;11.182;2023-06-10T12:40:36;2.97;;;0.22;;
55254;SDS011;41118;44.634;11.182;2023-06-10T12:43:02;5.07;;;0.30;;
55254;SDS011;41118;44.634;11.182;2023-06-10T12:45:30;3.50;;;0.40;;
55254;SDS011;41118;44.634;11.182;2023-06-10T12:48:06;2.83;;;0.40;;
55254;SDS011;41118;44.634;11.182;2023-06-10T12:50:34;4.50;;;0.35;;
55254;SDS011;41118;44.634;11.182;2023-06-10T12:53:02;2.72;;;0.30;;
55254;SDS011;41118;44.634;11.182;2023-06-10T12:55:28;5.47;;;0.82;;
55254;SDS011;41118;44.634;11.182;2023-06-10T12:57:54;3.92;;;0.30;;
55254;SDS011;41118;44.634;11.182;2023-06-10T13:00:22;1.88;;;0.25;;
55254;SDS011;41118;44.634;11.182;2023-06-10T13:02:50;1.40;;;0.30;;
55254;SDS011;41118;44.634;11.182;2023-06-10T13:05:17;3.67;;;0.30;;
55254;SDS011;41118;44.634;11.182;2023-06-10T13:07:43;1.33;;;0.40;;
55254;SDS011;41118;44.634;11.182;2023-06-10T13:10:09;2.05;;;0.30;;
55254;SDS011;41118;44.634;11.182;2023-06-10T13:12:36;1.00;;;0.20;;
55254;SDS011;41118;44.634;11.182;2023-06-10T13:15:02;1.10;;;0.28;;
55254;SDS011;41118;44.634;11.182;2023-06-10T13:17:28;4.43;;;0.73;;
55254;SDS011;41118;44.634;11.182;2023-06-10T13:19:55;1.08;;;0.20;;
55254;SDS011;41118;44.634;11.182;2023-06-10T13:22:20;1.15;;;0.28;;
55254;SDS011;41118;44.634;11.182;2023-06-10T13:24:48;1.30;;;0.30;;
55254;SDS011;41118;44.634;11.182;2023-06-10T13:27:15;14.40;;;0.63;;
55254;SDS011;41118;44.634;11.182;2023-06-10T13:29:41;0.85;;;0.25;;
55254;SDS011;41118;44.634;11.182;2023-06-10T13:32:07;1.20;;;0.30;;
55254;SDS011;41118;44.634;11.182;2023-06-10T13:34:33;1.33;;;0.30;;
55254;SDS011;41118;44.634;11.182;2023-06-10T13:36:59;2.72;;;0.20;;
55254;SDS011;41118;44.634;11.182;2023-06-10T13:39:26;2.42;;;0.30;;
55254;SDS011;41118;44.634;11.182;2023-06-10T13:41:52;1.77;;;0.30;;
55254;SDS011;41118;44.634;11.182;2023-06-10T13:44:19;0.88;;;0.20;;
55254;SDS011;41118;44.634;11.182;2023-06-10T13:46:45;3.63;;;0.30;;
55254;SDS011;41118;44.634;11.182;2023-06-10T13:49:11;4.35;;;0.20;;
55254;SDS011;41118;44.634;11.182;2023-06-10T13:51:37;1.30;;;0.20;;
55254;SDS011;41118;44.634;11.182;2023-06-10T13:54:03;1.20;;;0.20;;
55254;SDS011;41118;44.634;11.182;2023-06-10T13:56:29;1.40;;;0.28;;
55254;SDS011;41118;44.634;11.182;2023-06-10T13:58:56;0.80;;;0.20;;
55254;SDS011;41118;44.634;11.182;2023-06-10T14:01:22;1.58;;;0.20;;
55254;SDS011;41118;44.634;11.182;2023-06-10T14:03:49;4.38;;;0.30;;
55254;SDS011;41118;44.634;11.182;2023-06-10T14:06:15;0.73;;;0.20;;
55254;SDS011;41118;44.634;11.182;2023-06-10T14:08:43;0.77;;;0.20;;
55254;SDS011;41118;44.634;11.182;2023-06-10T14:11:10;1.23;;;0.20;;
55254;SDS011;41118;44.634;11.182;2023-06-10T14:13:49;0.88;;;0.45;;
55254;SDS011;41118;44.634;11.182;2023-06-10T14:16:17;4.97;;;0.85;;
55254;SDS011;41118;44.634;11.182;2023-06-10T14:18:43;1.95;;;0.20;;
55254;SDS011;41118;44.634;11.182;2023-06-10T14:21:09;0.85;;;0.20;;
55254;SDS011;41118;44.634;11.182;2023-06-10T14:23:35;1.63;;;0.20;;
55254;SDS011;41118;44.634;11.182;2023-06-10T14:26:01;1.95;;;0.20;;
55254;SDS011;41118;44.634;11.182;2023-06-10T14:28:28;1.65;;;0.40;;
55254;SDS011;41118;44.634;11.182;2023-06-10T14:30:54;1.10;;;0.30;;
55254;SDS011;41118;44.634;11.182;2023-06-10T14:33:22;1.90;;;0.20;;
55254;SDS011;41118;44.634;11.182;2023-06-10T14:35:48;1.55;;;0.30;;
55254;SDS011;41118;44.634;11.182;2023-06-10T14:38:14;1.20;;;0.40;;
55254;SDS011;41118;44.634;11.182;2023-06-10T14:40:40;2.92;;;0.28;;
55254;SDS011;41118;44.634;11.182;2023-06-10T14:43:06;6.80;;;1.10;;
55254;SDS011;41118;44.634;11.182;2023-06-10T14:45:35;1.08;;;0.28;;
55254;SDS011;41118;44.634;11.182;2023-06-10T14:48:02;3.45;;;0.30;;
55254;SDS011;41118;44.634;11.182;2023-06-10T14:50:28;0.80;;;0.20;;
55254;SDS011;41118;44.634;11.182;2023-06-10T14:52:55;3.08;;;0.20;;
55254;SDS011;41118;44.634;11.182;2023-06-10T14:55:21;0.90;;;0.20;;